createdAt,value
2023-01-21T00:02:21.491Z,9.00
2023-01-21T00:04:53.337Z,8.30
2023-01-21T00:07:26.003Z,10.00
2023-01-21T00:09:57.809Z,8.10
2023-01-21T00:12:29.504Z,10.80
2023-01-21T00:15:01.317Z,11.90
2023-01-21T00:17:36.105Z,10.40
2023-01-21T00:20:09.849Z,9.50
2023-01-21T00:22:41.588Z,9.70
2023-01-21T00:25:13.449Z,8.80
2023-01-21T00:27:45.228Z,8.10
2023-01-21T00:30:18.063Z,10.90
2023-01-21T00:32:50.026Z,8.50
2023-01-21T00:35:21.810Z,8.00
2023-01-21T00:37:54.919Z,9.20
2023-01-21T00:40:26.678Z,8.20
2023-01-21T00:42:58.401Z,6.50
2023-01-21T00:45:30.104Z,9.00
2023-01-21T00:48:01.961Z,8.30
2023-01-21T00:50:33.655Z,7.80
2023-01-21T00:53:05.360Z,9.20
2023-01-21T00:55:37.126Z,10.10
2023-01-21T00:58:08.888Z,9.00
2023-01-21T01:00:40.757Z,10.00
2023-01-21T01:03:12.470Z,7.20
2023-01-21T01:05:44.251Z,7.90
2023-01-21T01:08:15.984Z,8.30
2023-01-21T01:10:47.749Z,8.40
2023-01-21T01:13:19.423Z,7.40
2023-01-21T01:15:54.701Z,7.10
2023-01-21T01:18:26.918Z,7.70
2023-01-21T01:20:58.942Z,6.50
2023-01-21T01:23:31.092Z,7.00
2023-01-21T01:26:06.270Z,8.00
2023-01-21T01:28:37.984Z,6.40
2023-01-21T01:31:13.015Z,6.40
2023-01-21T01:33:44.987Z,7.30
2023-01-21T01:36:18.727Z,6.20
2023-01-21T01:38:50.613Z,8.30
2023-01-21T01:41:24.510Z,7.00
2023-01-21T01:44:02.061Z,7.20
2023-01-21T01:46:35.868Z,8.10
2023-01-21T01:49:13.327Z,9.60
2023-01-21T01:51:48.732Z,8.50
2023-01-21T01:54:24.292Z,9.30
2023-01-21T01:56:59.741Z,6.40
2023-01-21T01:59:33.011Z,8.30
2023-01-21T02:02:08.538Z,8.40
2023-01-21T02:04:45.303Z,7.80
2023-01-21T02:07:19.409Z,8.50
2023-01-21T02:09:52.013Z,6.80
2023-01-21T02:12:24.431Z,7.10
2023-01-21T02:15:02.425Z,8.30
2023-01-21T02:17:47.194Z,7.90
2023-01-21T02:20:38.433Z,7.30
2023-01-21T02:23:18.084Z,6.40
2023-01-21T02:26:29.644Z,7.10
2023-01-21T02:29:26.791Z,7.60
2023-01-21T02:35:43.995Z,7.10
2023-01-21T02:38:27.484Z,7.40
2023-01-21T02:41:08.104Z,6.70
2023-01-21T02:43:52.550Z,7.80
2023-01-21T02:46:32.692Z,7.40
2023-01-21T02:49:13.231Z,8.00
2023-01-21T02:51:50.019Z,10.20
2023-01-21T02:54:51.964Z,6.90
2023-01-21T02:57:34.353Z,6.80
2023-01-21T03:00:10.605Z,7.30
2023-01-21T03:03:12.674Z,7.10
2023-01-21T03:06:09.774Z,7.00
2023-01-21T03:08:47.317Z,7.00
2023-01-21T03:11:21.094Z,7.70
2023-01-21T03:14:13.494Z,6.80
2023-01-21T03:17:00.607Z,5.10
2023-01-21T03:19:39.542Z,7.70
2023-01-21T03:22:15.946Z,7.80
2023-01-21T03:24:52.544Z,7.80
2023-01-21T03:27:27.794Z,8.20
2023-01-21T03:30:04.811Z,6.90
2023-01-21T03:32:37.219Z,8.20
2023-01-21T03:35:11.841Z,6.20
2023-01-21T03:37:47.980Z,7.00
2023-01-21T03:40:23.576Z,8.10
2023-01-21T03:42:56.365Z,9.50
2023-01-21T03:45:37.509Z,8.60
2023-01-21T03:48:17.400Z,9.20
2023-01-21T03:50:54.751Z,8.70
2023-01-21T03:53:26.753Z,8.80
2023-01-21T03:55:59.152Z,7.00
2023-01-21T03:58:31.119Z,6.90
2023-01-21T04:01:02.907Z,5.60
2023-01-21T04:03:34.635Z,6.00
2023-01-21T04:06:06.470Z,6.60
2023-01-21T04:08:38.124Z,7.50
2023-01-21T04:11:10.059Z,6.30
2023-01-21T04:13:41.793Z,6.30
2023-01-21T04:16:13.561Z,6.00
2023-01-21T04:18:45.435Z,6.30
2023-01-21T04:21:17.338Z,5.60
2023-01-21T04:23:49.244Z,5.50
2023-01-21T04:26:21.020Z,5.80
2023-01-21T04:28:52.729Z,5.80
2023-01-21T04:31:24.496Z,6.00
2023-01-21T04:33:56.227Z,5.70
2023-01-21T04:36:28.000Z,6.50
2023-01-21T04:38:59.745Z,10.30
2023-01-21T04:41:31.450Z,8.20
2023-01-21T04:44:03.109Z,7.90
2023-01-21T04:46:34.837Z,8.10
2023-01-21T04:49:06.567Z,6.60
2023-01-21T04:51:38.319Z,7.70
2023-01-21T04:54:12.015Z,7.40
2023-01-21T04:56:43.790Z,7.50
2023-01-21T04:59:15.853Z,7.00
2023-01-21T05:01:47.535Z,7.00
2023-01-21T05:04:19.334Z,6.40
2023-01-21T05:06:51.178Z,5.30
2023-01-21T05:09:22.947Z,5.90
2023-01-21T05:11:54.671Z,6.50
2023-01-21T05:14:26.382Z,8.40
2023-01-21T05:16:58.863Z,7.00
2023-01-21T05:19:30.616Z,7.40
2023-01-21T05:22:02.344Z,11.60
2023-01-21T05:24:34.058Z,8.30
2023-01-21T05:27:05.876Z,8.00
2023-01-21T05:29:37.617Z,6.00
2023-01-21T05:32:09.963Z,8.30
2023-01-21T05:34:41.631Z,7.80
2023-01-21T05:37:13.989Z,6.30
2023-01-21T05:39:45.662Z,7.60
2023-01-21T05:42:17.400Z,7.10
2023-01-21T05:44:49.066Z,8.30
2023-01-21T05:47:20.754Z,7.50
2023-01-21T05:49:52.517Z,7.00
2023-01-21T05:52:24.253Z,9.00
2023-01-21T05:55:01.739Z,8.30
2023-01-21T05:57:34.189Z,8.80
2023-01-21T06:00:07.460Z,7.20
2023-01-21T06:02:39.236Z,9.70
2023-01-21T06:05:11.451Z,7.00
2023-01-21T06:07:43.175Z,6.50
2023-01-21T06:10:15.198Z,6.10
2023-01-21T06:12:47.543Z,8.10
2023-01-21T06:15:19.833Z,9.30
2023-01-21T06:17:51.666Z,7.20
2023-01-21T06:20:23.944Z,8.30
2023-01-21T06:22:55.651Z,7.90
2023-01-21T06:25:27.685Z,7.70
2023-01-21T06:28:01.198Z,8.90
2023-01-21T06:33:03.112Z,7.80
2023-01-21T06:35:35.898Z,6.40
2023-01-21T06:38:07.590Z,6.30
2023-01-21T06:40:39.330Z,6.90
2023-01-21T06:43:11.073Z,6.50
2023-01-21T06:45:42.819Z,8.70
2023-01-21T06:48:14.478Z,6.90
2023-01-21T06:50:46.198Z,8.50
2023-01-21T06:53:17.985Z,6.50
2023-01-21T06:55:49.816Z,6.70
2023-01-21T06:58:22.563Z,8.00
2023-01-21T07:00:56.326Z,6.70
2023-01-21T07:03:29.190Z,7.80
2023-01-21T07:06:00.938Z,6.80
2023-01-21T07:08:32.669Z,8.20
2023-01-21T07:11:04.651Z,9.00
2023-01-21T07:13:36.331Z,6.00
2023-01-21T07:16:09.362Z,6.90
2023-01-21T07:18:41.071Z,8.10
2023-01-21T07:21:12.817Z,7.10
2023-01-21T07:23:45.036Z,7.40
2023-01-21T07:26:16.696Z,8.90
2023-01-21T07:28:48.689Z,8.20
2023-01-21T07:31:20.559Z,9.10
2023-01-21T07:33:52.520Z,8.30
2023-01-21T07:36:24.213Z,8.50
2023-01-21T07:38:56.776Z,10.30
2023-01-21T07:41:28.574Z,8.40
2023-01-21T07:44:00.265Z,9.60
2023-01-21T07:46:33.208Z,14.40
2023-01-21T07:49:05.270Z,12.20
2023-01-21T07:51:37.076Z,12.10
2023-01-21T07:54:08.822Z,9.80
2023-01-21T07:56:40.866Z,13.00
2023-01-21T07:59:15.044Z,12.00
2023-01-21T08:01:46.874Z,9.90
2023-01-21T08:04:18.754Z,12.30
2023-01-21T08:06:56.724Z,10.20
2023-01-21T08:09:28.439Z,12.20
2023-01-21T08:12:00.103Z,10.50
2023-01-21T08:14:31.836Z,11.40
2023-01-21T08:17:04.042Z,13.80
2023-01-21T08:19:35.750Z,11.60
2023-01-21T08:22:07.498Z,10.60
2023-01-21T08:24:39.232Z,10.30
2023-01-21T08:27:11.024Z,10.00
2023-01-21T08:29:42.763Z,12.20
2023-01-21T08:32:14.512Z,11.10
2023-01-21T08:34:46.281Z,13.70
2023-01-21T08:37:18.238Z,12.30
2023-01-21T08:39:49.942Z,11.80
2023-01-21T08:42:21.683Z,27.50
2023-01-21T08:44:54.163Z,17.80
2023-01-21T08:47:26.270Z,20.00
2023-01-21T08:49:57.944Z,15.90
2023-01-21T08:52:29.782Z,12.00
2023-01-21T08:55:01.535Z,15.10
2023-01-21T08:57:33.271Z,16.40
2023-01-21T09:00:05.698Z,13.20
2023-01-21T09:02:37.411Z,17.60
2023-01-21T09:05:10.638Z,18.40
2023-01-21T09:07:42.360Z,20.40
2023-01-21T09:10:34.947Z,17.90
2023-01-21T09:13:11.093Z,22.90
2023-01-21T09:15:44.268Z,23.50
2023-01-21T09:18:16.226Z,18.10
2023-01-21T09:20:48.024Z,17.00
2023-01-21T09:23:25.988Z,16.70
2023-01-21T09:26:02.643Z,19.50
2023-01-21T09:28:36.721Z,19.20
2023-01-21T09:31:10.837Z,17.80
2023-01-21T09:33:44.760Z,14.30
2023-01-21T09:36:19.011Z,15.00
2023-01-21T09:38:52.109Z,12.40
2023-01-21T09:41:29.190Z,14.90
2023-01-21T09:44:13.291Z,16.00
2023-01-21T09:46:50.404Z,13.60
2023-01-21T09:49:26.161Z,14.30
2023-01-21T09:52:06.727Z,12.50
2023-01-21T09:54:40.077Z,14.50
2023-01-21T10:00:01.125Z,13.90
2023-01-21T10:02:39.571Z,16.00
2023-01-21T10:05:39.086Z,15.10
2023-01-21T10:08:19.250Z,16.20
2023-01-21T10:10:57.586Z,16.60
2023-01-21T10:13:42.017Z,18.40
2023-01-21T10:16:26.720Z,17.60
2023-01-21T10:19:02.274Z,15.90
2023-01-21T10:21:38.593Z,14.00
2023-01-21T10:24:15.962Z,14.50
2023-01-21T10:26:50.849Z,15.30
2023-01-21T10:29:25.243Z,12.10
2023-01-21T10:32:03.179Z,10.30
2023-01-21T10:34:39.743Z,11.10
2023-01-21T10:37:19.351Z,14.30
2023-01-21T10:40:00.479Z,25.10
2023-01-21T10:42:55.102Z,33.70
2023-01-21T10:45:35.313Z,24.50
2023-01-21T10:48:16.713Z,24.70
2023-01-21T10:50:55.125Z,30.30
2023-01-21T10:53:32.600Z,15.00
2023-01-21T10:56:18.844Z,16.60
2023-01-21T10:58:53.219Z,18.20
2023-01-21T11:04:05.178Z,17.10
2023-01-21T11:06:37.868Z,17.50
2023-01-21T11:09:13.381Z,20.40
2023-01-21T11:11:46.483Z,18.20
2023-01-21T11:14:20.518Z,18.60
2023-01-21T11:24:48.609Z,12.10
2023-01-21T11:27:32.943Z,12.40
2023-01-21T11:30:16.639Z,14.20
2023-01-21T11:33:11.726Z,14.80
2023-01-21T12:14:55.475Z,9.10
2023-01-21T12:17:40.010Z,9.80
2023-01-21T12:20:25.616Z,7.10
2023-01-21T12:23:16.760Z,6.70
2023-01-21T12:25:56.215Z,7.20
2023-01-21T12:28:49.567Z,6.30
2023-01-21T12:31:29.890Z,11.40
2023-01-21T12:34:10.700Z,9.80
2023-01-21T12:36:46.944Z,10.60
2023-01-21T12:39:26.949Z,11.30
2023-01-21T12:42:07.420Z,10.80
2023-01-21T12:44:46.188Z,13.60
2023-01-21T12:47:24.937Z,10.50
2023-01-21T12:50:05.083Z,10.50
2023-01-21T12:52:47.206Z,8.30
2023-01-21T12:55:25.339Z,9.70
2023-01-21T12:58:02.368Z,11.20
2023-01-21T13:00:36.638Z,10.90
2023-01-21T13:03:21.771Z,12.10
2023-01-21T13:05:59.936Z,13.20
2023-01-21T13:08:41.196Z,14.50
2023-01-21T13:11:22.167Z,14.60
2023-01-21T13:14:16.371Z,13.80
2023-01-21T13:16:54.197Z,14.00
2023-01-21T13:19:26.037Z,14.20
2023-01-21T13:22:05.697Z,16.10
2023-01-21T13:24:57.306Z,17.00
2023-01-21T13:27:35.008Z,15.60
2023-01-21T13:30:18.572Z,13.40
2023-01-21T13:35:34.789Z,12.10
2023-01-21T13:38:15.599Z,12.70
2023-01-21T13:40:54.189Z,11.40
2023-01-21T13:43:44.706Z,14.90
2023-01-21T13:46:26.471Z,12.30
2023-01-21T13:49:17.292Z,12.00
2023-01-21T13:51:57.138Z,9.80
2023-01-21T13:54:46.263Z,10.30
2023-01-21T13:57:39.072Z,14.90
2023-01-21T14:00:17.329Z,14.30
2023-01-21T14:02:58.664Z,12.60
2023-01-21T14:05:34.978Z,12.80
2023-01-21T14:08:11.109Z,11.10
2023-01-21T14:10:49.577Z,15.90
2023-01-21T14:13:58.358Z,19.30
2023-01-21T14:16:55.762Z,20.70
2023-01-21T14:20:01.006Z,22.50
2023-01-21T14:23:08.089Z,20.00
2023-01-21T14:26:00.530Z,20.50
2023-01-21T14:28:42.558Z,14.30
2023-01-21T14:31:19.537Z,13.80
2023-01-21T14:33:55.535Z,18.90
2023-01-21T14:36:36.808Z,20.20
2023-01-21T14:39:22.776Z,19.10
2023-01-21T14:42:03.903Z,25.40
2023-01-21T14:44:44.094Z,20.00
2023-01-21T14:47:41.221Z,20.20
2023-01-21T14:50:33.055Z,26.40
2023-01-21T14:53:13.777Z,29.10
2023-01-21T14:55:45.785Z,22.00
2023-01-21T14:58:27.761Z,23.10
2023-01-21T15:00:59.786Z,23.40
2023-01-21T15:03:32.822Z,18.80
2023-01-21T15:06:09.743Z,22.30
2023-01-21T15:08:47.181Z,23.90
2023-01-21T15:11:24.182Z,20.70
2023-01-21T15:14:07.460Z,21.50
2023-01-21T15:16:40.415Z,21.90
2023-01-21T15:19:32.053Z,22.30
2023-01-21T15:22:19.479Z,26.70
2023-01-21T15:25:25.084Z,27.70
2023-01-21T15:28:36.833Z,28.60
2023-01-21T15:31:11.657Z,24.30
2023-01-21T15:33:50.839Z,22.90
2023-01-21T15:36:26.452Z,25.50
2023-01-21T15:39:02.458Z,36.50
2023-01-21T15:41:50.519Z,44.20
2023-01-21T15:44:35.865Z,43.90
2023-01-21T15:47:19.925Z,35.40
2023-01-21T15:50:00.405Z,32.50
2023-01-21T15:52:59.540Z,29.50
2023-01-21T15:55:44.223Z,27.00
2023-01-21T15:58:26.116Z,23.30
2023-01-21T16:01:05.425Z,29.70
2023-01-21T16:03:43.872Z,29.10
2023-01-21T16:06:28.437Z,28.40
2023-01-21T16:09:06.656Z,30.50
2023-01-21T16:11:56.828Z,30.70
2023-01-21T16:14:52.383Z,28.30
2023-01-21T16:17:35.927Z,27.30
2023-01-21T16:20:11.219Z,27.00
2023-01-21T16:22:46.912Z,27.10
2023-01-21T16:25:22.707Z,27.20
2023-01-21T16:27:56.151Z,27.40
2023-01-21T16:33:13.684Z,26.60
2023-01-21T16:35:48.028Z,28.90
2023-01-21T16:38:23.223Z,32.90
2023-01-21T16:41:24.137Z,32.10
2023-01-21T16:44:00.146Z,38.20
2023-01-21T16:46:34.679Z,47.50
2023-01-21T16:49:12.276Z,55.50
2023-01-21T16:51:51.200Z,62.00
2023-01-21T16:54:31.894Z,66.20
2023-01-21T16:57:05.575Z,59.70
2023-01-21T16:59:43.236Z,59.80
2023-01-21T17:02:21.354Z,54.90
2023-01-21T17:04:55.562Z,55.60
2023-01-21T17:07:32.305Z,65.00
2023-01-21T17:10:07.269Z,65.10
2023-01-21T17:12:39.358Z,66.20
2023-01-21T17:15:20.336Z,65.80
2023-01-21T17:17:55.597Z,48.20
2023-01-21T17:20:41.635Z,54.40
2023-01-21T17:23:20.054Z,52.10
2023-01-21T17:25:57.087Z,57.00
2023-01-21T17:28:33.465Z,52.00
2023-01-21T17:31:29.303Z,58.90
2023-01-21T17:34:06.592Z,71.20
2023-01-21T17:36:40.369Z,68.10
2023-01-21T17:39:13.126Z,73.60
2023-01-21T17:41:46.611Z,71.30
2023-01-21T17:44:23.082Z,67.20
2023-01-21T17:46:56.439Z,70.70
2023-01-21T17:49:28.819Z,69.60
2023-01-21T17:52:00.648Z,55.90
2023-01-21T17:54:32.992Z,56.70
2023-01-21T17:57:04.851Z,49.20
2023-01-21T17:59:40.718Z,48.20
2023-01-21T18:02:16.407Z,51.10
2023-01-21T18:04:48.648Z,50.50
2023-01-21T18:07:25.118Z,48.30
2023-01-21T18:10:00.575Z,49.90
2023-01-21T18:12:32.789Z,53.00
2023-01-21T18:15:04.916Z,49.60
2023-01-21T18:17:38.969Z,57.60
2023-01-21T18:20:18.251Z,64.10
2023-01-21T18:22:52.453Z,72.20
2023-01-21T18:25:24.990Z,72.40
2023-01-21T18:27:57.080Z,67.70
2023-01-21T18:30:30.990Z,67.90
2023-01-21T18:33:03.385Z,65.40
2023-01-21T18:35:35.445Z,69.10
2023-01-21T18:38:10.773Z,59.10
2023-01-21T18:40:42.967Z,60.70
2023-01-21T18:43:14.767Z,64.20
2023-01-21T18:45:46.588Z,69.80
2023-01-21T18:48:21.145Z,69.00
2023-01-21T18:50:53.474Z,69.70
2023-01-21T18:53:25.604Z,65.90
2023-01-21T18:55:57.828Z,72.40
2023-01-21T18:58:29.788Z,56.80
2023-01-21T19:01:08.035Z,58.70
2023-01-21T19:03:46.367Z,56.10
2023-01-21T19:06:18.887Z,58.70
2023-01-21T19:08:50.729Z,56.30
2023-01-21T19:11:22.550Z,53.60
2023-01-21T19:13:54.337Z,51.50
2023-01-21T19:16:26.746Z,42.70
2023-01-21T19:18:59.573Z,47.00
2023-01-21T19:21:31.688Z,47.10
2023-01-21T19:24:03.728Z,51.10
2023-01-21T19:26:36.175Z,57.10
2023-01-21T19:29:13.666Z,58.50
2023-01-21T19:31:45.781Z,54.20
2023-01-21T19:34:17.671Z,51.80
2023-01-21T19:36:49.824Z,53.20
2023-01-21T19:39:25.288Z,54.30
2023-01-21T19:42:07.617Z,54.80
2023-01-21T19:44:40.653Z,52.00
2023-01-21T19:47:18.896Z,72.20
2023-01-21T19:49:50.980Z,75.90
2023-01-21T19:52:22.856Z,82.20
2023-01-21T19:54:55.357Z,74.10
2023-01-21T19:57:29.341Z,80.90
2023-01-21T20:00:01.429Z,69.90
2023-01-21T20:02:33.218Z,73.80
2023-01-21T20:05:05.329Z,66.20
2023-01-21T20:07:37.560Z,68.20
2023-01-21T20:10:20.568Z,61.10
2023-01-21T20:12:58.281Z,61.90
2023-01-21T20:18:33.672Z,68.70
2023-01-21T20:21:05.756Z,71.90
2023-01-21T20:23:39.395Z,69.30
2023-01-21T20:26:17.389Z,88.30
2023-01-21T20:28:51.564Z,98.50
2023-01-21T20:31:23.640Z,76.70
2023-01-21T20:33:55.514Z,82.20
2023-01-21T20:36:28.274Z,85.50
2023-01-21T20:39:00.119Z,79.10
2023-01-21T20:41:50.318Z,86.40
2023-01-21T20:44:22.454Z,84.50
2023-01-21T20:47:02.040Z,78.30
2023-01-21T20:49:33.944Z,74.00
2023-01-21T20:52:06.029Z,73.00
2023-01-21T20:54:37.887Z,75.30
2023-01-21T20:57:14.706Z,68.30
2023-01-21T20:59:46.383Z,68.80
2023-01-21T21:02:18.077Z,73.50
2023-01-21T21:04:49.843Z,73.00
2023-01-21T21:07:25.922Z,67.80
2023-01-21T21:09:59.942Z,59.60
2023-01-21T21:12:31.712Z,65.00
2023-01-21T21:15:03.658Z,62.90
2023-01-21T21:17:35.424Z,74.70
2023-01-21T21:20:08.924Z,52.90
2023-01-21T21:25:16.441Z,52.30
2023-01-21T21:27:48.834Z,53.30
2023-01-21T21:30:22.450Z,51.30
2023-01-21T21:32:56.218Z,48.50
2023-01-21T21:35:29.922Z,56.90
2023-01-21T21:38:04.918Z,50.20
2023-01-21T21:40:36.806Z,51.40
2023-01-21T21:43:26.452Z,45.90
2023-01-21T21:46:15.713Z,61.30
2023-01-21T21:48:47.515Z,65.90
2023-01-21T21:51:19.756Z,68.70
2023-01-21T21:53:52.206Z,69.30
2023-01-21T21:56:25.426Z,61.10
2023-01-21T21:58:57.146Z,62.70
2023-01-21T22:01:31.095Z,66.60
2023-01-21T22:04:03.777Z,71.40
2023-01-21T22:06:35.955Z,65.30
2023-01-21T22:09:08.312Z,67.50
2023-01-21T22:11:40.226Z,80.10
2023-01-21T22:14:11.987Z,82.00
2023-01-21T22:16:44.270Z,73.10
2023-01-21T22:19:16.041Z,80.60
2023-01-21T22:21:47.776Z,79.70
2023-01-21T22:24:19.782Z,88.80
2023-01-21T22:26:51.539Z,86.90
2023-01-21T22:29:23.254Z,93.10
2023-01-21T22:31:55.131Z,85.90
2023-01-21T22:34:26.912Z,76.20
2023-01-21T22:36:58.660Z,63.50
2023-01-21T22:39:31.134Z,70.00
2023-01-21T22:42:04.939Z,70.10
2023-01-21T22:44:36.824Z,63.40
2023-01-21T22:47:08.589Z,61.10
2023-01-21T22:49:40.357Z,62.70
2023-01-21T22:52:12.074Z,62.80
2023-01-21T22:54:43.798Z,60.40
2023-01-21T22:57:15.504Z,57.90
2023-01-21T22:59:47.221Z,72.70
2023-01-21T23:02:19.456Z,71.30
2023-01-21T23:04:51.233Z,73.90
2023-01-21T23:07:23.026Z,83.70
2023-01-21T23:09:54.774Z,79.00
2023-01-21T23:12:28.647Z,84.10
2023-01-21T23:15:00.351Z,79.50
2023-01-21T23:17:32.094Z,79.90
2023-01-21T23:20:04.401Z,74.70
2023-01-21T23:22:36.406Z,90.80
2023-01-21T23:25:10.092Z,86.80
2023-01-21T23:27:42.044Z,94.00
2023-01-21T23:30:16.457Z,94.70
2023-01-21T23:32:48.560Z,83.20
2023-01-21T23:35:20.367Z,84.60
2023-01-21T23:37:52.038Z,82.90
2023-01-21T23:40:23.776Z,85.00
2023-01-21T23:48:27.921Z,73.40
2023-01-21T23:51:40.447Z,67.80
2023-01-21T23:54:17.401Z,59.30
2023-01-21T23:56:49.139Z,58.40
2023-01-21T23:59:20.881Z,60.00
